createdAt,value
2022-08-22T00:00:35.864Z,3.87
2022-08-22T00:06:01.236Z,4.00
2022-08-22T00:08:40.243Z,3.63
2022-08-22T00:11:18.929Z,3.70
2022-08-22T00:14:01.852Z,3.77
2022-08-22T00:16:39.790Z,4.30
2022-08-22T00:19:19.492Z,3.83
2022-08-22T00:22:02.352Z,3.97
2022-08-22T00:24:39.894Z,3.70
2022-08-22T00:27:14.415Z,3.90
2022-08-22T00:29:46.944Z,3.50
2022-08-22T00:32:21.326Z,3.80
2022-08-22T00:34:58.745Z,4.30
2022-08-22T00:37:33.238Z,4.00
2022-08-22T00:40:10.057Z,4.40
2022-08-22T00:43:09.037Z,3.90
2022-08-22T00:45:59.968Z,4.23
2022-08-22T00:48:59.911Z,3.97
2022-08-22T00:52:16.466Z,3.93
2022-08-22T00:55:04.764Z,4.17
2022-08-22T00:57:49.162Z,3.37
2022-08-22T01:00:20.818Z,4.67
2022-08-22T01:03:17.849Z,4.30
2022-08-22T01:06:00.189Z,4.67
2022-08-22T01:08:51.207Z,4.13
2022-08-22T01:11:50.064Z,3.93
2022-08-22T01:14:35.428Z,5.07
2022-08-22T01:17:27.404Z,3.93
2022-08-22T01:20:37.991Z,4.80
2022-08-22T01:24:04.496Z,4.27
2022-08-22T01:27:13.093Z,4.77
2022-08-22T01:30:11.716Z,4.87
2022-08-22T01:33:15.962Z,4.77
2022-08-22T01:36:18.459Z,5.23
2022-08-22T01:39:16.463Z,4.57
2022-08-22T01:42:21.593Z,4.60
2022-08-22T01:45:20.845Z,3.80
2022-08-22T01:47:54.957Z,4.10
2022-08-22T01:50:31.021Z,3.33
2022-08-22T01:53:06.649Z,4.30
2022-08-22T01:55:40.535Z,4.50
2022-08-22T01:58:18.029Z,4.93
2022-08-22T02:01:03.979Z,4.60
2022-08-22T02:03:37.700Z,4.53
2022-08-22T02:06:14.560Z,4.73
2022-08-22T02:08:51.226Z,3.60
2022-08-22T02:11:39.195Z,3.67
2022-08-22T02:14:17.781Z,4.13
2022-08-22T02:16:50.526Z,4.17
2022-08-22T02:19:40.587Z,4.10
2022-08-22T02:22:28.378Z,4.40
2022-08-22T02:25:10.053Z,5.37
2022-08-22T02:27:50.536Z,4.67
2022-08-22T02:30:22.081Z,4.40
2022-08-22T02:33:00.041Z,4.80
2022-08-22T02:35:35.400Z,4.20
2022-08-22T02:38:24.794Z,4.20
2022-08-22T02:41:09.390Z,4.60
2022-08-22T02:43:45.141Z,4.23
2022-08-22T02:46:23.503Z,4.87
2022-08-22T02:49:01.105Z,5.60
2022-08-22T02:51:37.804Z,4.30
2022-08-22T02:54:16.184Z,4.90
2022-08-22T02:56:53.748Z,4.87
2022-08-22T02:59:33.492Z,5.67
2022-08-22T03:02:35.891Z,4.77
2022-08-22T03:05:24.408Z,4.50
2022-08-22T03:08:00.887Z,4.17
2022-08-22T03:10:35.758Z,5.23
2022-08-22T03:13:12.265Z,5.90
2022-08-22T03:15:49.308Z,5.77
2022-08-22T03:18:26.223Z,6.93
2022-08-22T03:21:01.332Z,7.03
2022-08-22T03:23:43.591Z,5.63
2022-08-22T03:26:18.794Z,4.83
2022-08-22T03:28:59.819Z,5.60
2022-08-22T03:31:31.592Z,5.53
2022-08-22T03:34:25.507Z,6.27
2022-08-22T03:37:16.931Z,5.83
2022-08-22T03:39:59.475Z,5.87
2022-08-22T03:43:07.099Z,6.47
2022-08-22T03:46:03.093Z,6.20
2022-08-22T03:48:54.652Z,5.93
2022-08-22T03:51:46.951Z,6.30
2022-08-22T03:54:37.829Z,5.50
2022-08-22T03:57:32.985Z,6.37
2022-08-22T04:00:14.730Z,5.60
2022-08-22T04:03:21.915Z,6.73
2022-08-22T04:06:27.430Z,6.33
2022-08-22T04:09:23.971Z,6.27
2022-08-22T04:12:14.443Z,6.87
2022-08-22T04:15:09.578Z,7.50
2022-08-22T04:18:33.429Z,6.73
2022-08-22T04:21:29.077Z,7.07
2022-08-22T04:24:27.456Z,6.07
2022-08-22T04:26:59.746Z,6.00
2022-08-22T04:29:34.349Z,5.90
2022-08-22T04:32:14.400Z,6.70
2022-08-22T04:34:50.578Z,6.47
2022-08-22T04:37:30.347Z,6.80
2022-08-22T04:40:04.356Z,6.73
2022-08-22T04:42:39.041Z,6.23
2022-08-22T04:45:14.125Z,6.27
2022-08-22T04:47:53.878Z,7.27
2022-08-22T04:50:27.777Z,8.03
2022-08-22T04:53:13.001Z,6.67
2022-08-22T04:55:54.217Z,7.47
2022-08-22T04:58:44.556Z,7.60
2022-08-22T05:01:17.975Z,6.70
2022-08-22T05:03:53.428Z,7.20
2022-08-22T05:06:28.791Z,7.47
2022-08-22T05:09:04.343Z,7.07
2022-08-22T05:11:35.879Z,7.10
2022-08-22T05:14:09.813Z,7.17
2022-08-22T05:16:42.108Z,7.17
2022-08-22T05:19:16.906Z,7.33
2022-08-22T05:21:49.673Z,7.40
2022-08-22T05:24:28.005Z,7.87
2022-08-22T05:27:05.118Z,8.50
2022-08-22T05:29:34.257Z,7.40
2022-08-22T05:32:05.906Z,7.80
2022-08-22T05:34:40.049Z,7.73
2022-08-22T05:37:14.404Z,8.50
2022-08-22T05:39:47.914Z,7.00
2022-08-22T05:42:25.873Z,8.37
2022-08-22T05:44:56.524Z,6.83
2022-08-22T05:47:30.850Z,8.40
2022-08-22T05:50:04.949Z,8.50
2022-08-22T05:52:59.400Z,9.67
2022-08-22T05:55:33.925Z,10.87
2022-08-22T05:58:17.739Z,9.53
2022-08-22T06:00:50.351Z,10.33
2022-08-22T06:03:27.007Z,10.17
2022-08-22T06:05:59.619Z,9.60
2022-08-22T06:08:34.468Z,10.30
2022-08-22T06:11:08.519Z,9.73
2022-08-22T06:13:41.504Z,8.90
2022-08-22T06:16:18.897Z,8.63
2022-08-22T06:18:49.383Z,9.07
2022-08-22T06:21:23.353Z,9.47
2022-08-22T06:23:57.678Z,10.23
2022-08-22T06:26:32.640Z,8.53
2022-08-22T06:29:02.960Z,8.47
2022-08-22T06:31:34.272Z,9.83
2022-08-22T06:34:10.743Z,9.57
2022-08-22T06:36:42.295Z,8.77
2022-08-22T06:39:18.666Z,8.40
2022-08-22T06:41:53.867Z,8.10
2022-08-22T06:44:24.629Z,8.57
2022-08-22T06:46:58.536Z,9.60
2022-08-22T06:49:28.169Z,8.30
2022-08-22T06:52:01.963Z,9.10
2022-08-22T06:54:37.393Z,8.43
2022-08-22T06:57:14.036Z,8.33
2022-08-22T06:59:44.866Z,7.97
2022-08-22T07:02:23.124Z,8.67
2022-08-22T07:04:53.215Z,8.80
2022-08-22T07:07:27.233Z,8.13
2022-08-22T07:09:57.749Z,8.10
2022-08-22T07:12:33.080Z,7.40
2022-08-22T07:15:12.564Z,7.83
2022-08-22T07:17:50.772Z,8.00
2022-08-22T07:20:27.124Z,8.30
2022-08-22T07:22:59.399Z,8.77
2022-08-22T07:25:29.310Z,8.33
2022-08-22T07:28:16.167Z,8.93
2022-08-22T07:30:57.644Z,8.00
2022-08-22T07:33:45.307Z,8.03
2022-08-22T07:36:27.356Z,8.03
2022-08-22T07:39:16.391Z,7.33
2022-08-22T07:41:59.815Z,8.10
2022-08-22T07:44:34.285Z,8.00
2022-08-22T07:47:09.320Z,9.10
2022-08-22T07:49:49.625Z,9.13
2022-08-22T07:52:20.022Z,9.20
2022-08-22T07:54:54.324Z,9.60
2022-08-22T07:57:26.979Z,9.07
2022-08-22T08:00:01.128Z,9.00
2022-08-22T08:02:30.436Z,10.07
2022-08-22T08:05:01.567Z,10.10
2022-08-22T08:07:32.397Z,10.43
2022-08-22T08:10:12.794Z,10.27
2022-08-22T08:12:45.188Z,10.77
2022-08-22T08:15:33.121Z,9.67
2022-08-22T08:18:07.027Z,9.73
2022-08-22T08:20:37.562Z,8.17
2022-08-22T08:23:10.668Z,8.97
2022-08-22T08:25:55.618Z,9.30
2022-08-22T08:28:38.248Z,8.40
2022-08-22T08:31:15.273Z,8.03
2022-08-22T08:33:48.528Z,7.40
2022-08-22T08:36:31.921Z,7.03
2022-08-22T08:39:12.722Z,6.20
2022-08-22T08:42:19.035Z,6.13
2022-08-22T08:45:11.258Z,6.67
2022-08-22T08:48:21.180Z,6.13
2022-08-22T08:51:04.712Z,6.10
2022-08-22T08:54:04.941Z,6.30
2022-08-22T08:56:39.474Z,5.33
2022-08-22T08:59:28.180Z,6.20
2022-08-22T09:02:20.583Z,4.53
2022-08-22T09:05:19.626Z,5.00
2022-08-22T09:08:30.823Z,4.27
2022-08-22T09:11:31.856Z,4.07
2022-08-22T09:14:21.635Z,3.70
2022-08-22T09:17:11.092Z,3.33
2022-08-22T09:20:17.730Z,3.73
2022-08-22T09:23:27.088Z,3.60
2022-08-22T09:26:01.547Z,3.53
2022-08-22T09:28:40.579Z,3.03
2022-08-22T09:31:48.356Z,3.43
2022-08-22T09:34:25.783Z,3.37
2022-08-22T09:37:15.429Z,3.53
2022-08-22T09:39:55.484Z,3.10
2022-08-22T09:42:34.507Z,3.93
2022-08-22T09:45:34.429Z,2.88
2022-08-22T09:48:10.308Z,3.20
2022-08-22T09:50:52.757Z,2.97
2022-08-22T09:53:44.724Z,3.00
2022-08-22T09:56:26.076Z,2.60
2022-08-22T09:59:04.029Z,3.47
2022-08-22T10:01:42.746Z,3.47
2022-08-22T10:04:46.082Z,3.53
2022-08-22T10:08:06.494Z,3.30
2022-08-22T10:11:00.824Z,3.38
2022-08-22T10:14:00.881Z,2.80
2022-08-22T10:17:04.746Z,3.17
2022-08-22T10:19:42.412Z,3.50
2022-08-22T10:22:44.541Z,3.92
2022-08-22T10:25:31.626Z,3.17
2022-08-22T10:28:15.097Z,3.92
2022-08-22T10:30:56.055Z,3.03
2022-08-22T10:33:30.276Z,3.13
2022-08-22T10:36:05.708Z,3.70
2022-08-22T10:38:44.179Z,3.80
2022-08-22T10:41:26.766Z,3.75
2022-08-22T10:44:04.474Z,3.42
2022-08-22T10:46:42.066Z,2.90
2022-08-22T10:49:20.033Z,2.97
2022-08-22T10:51:58.398Z,3.10
2022-08-22T10:54:49.656Z,3.15
2022-08-22T10:57:35.879Z,3.38
2022-08-22T11:00:12.915Z,3.78
2022-08-22T11:03:01.048Z,3.55
2022-08-22T11:05:40.130Z,3.22
2022-08-22T11:08:23.388Z,3.22
2022-08-22T11:11:07.137Z,3.30
2022-08-22T11:13:43.829Z,3.33
2022-08-22T11:16:30.636Z,3.00
2022-08-22T11:19:17.309Z,3.33
2022-08-22T11:21:53.651Z,2.75
2022-08-22T11:25:03.715Z,2.72
2022-08-22T11:27:44.374Z,2.70
2022-08-22T11:30:18.713Z,2.42
2022-08-22T11:33:11.812Z,3.10
2022-08-22T11:35:50.118Z,2.63
2022-08-22T11:38:32.638Z,2.80
2022-08-22T11:41:06.906Z,2.38
2022-08-22T11:43:47.215Z,2.85
2022-08-22T11:46:21.585Z,2.40
2022-08-22T11:49:13.700Z,3.22
2022-08-22T11:52:02.884Z,3.17
2022-08-22T11:54:57.209Z,3.30
2022-08-22T11:57:34.341Z,2.70
2022-08-22T12:00:20.821Z,2.67
2022-08-22T12:03:23.165Z,2.53
2022-08-22T12:05:56.490Z,2.40
2022-08-22T12:08:58.050Z,2.58
2022-08-22T12:11:34.623Z,2.40
2022-08-22T12:14:08.175Z,2.90
2022-08-22T12:16:44.934Z,2.95
2022-08-22T12:19:22.979Z,2.38
2022-08-22T12:22:15.519Z,2.85
2022-08-22T12:25:08.008Z,2.50
2022-08-22T12:27:55.344Z,2.80
2022-08-22T12:30:33.965Z,2.42
2022-08-22T12:33:25.285Z,2.17
2022-08-22T12:36:18.277Z,2.42
2022-08-22T12:39:02.341Z,2.25
2022-08-22T12:42:07.291Z,2.67
2022-08-22T12:44:46.799Z,2.50
2022-08-22T12:47:32.204Z,2.53
2022-08-22T12:50:18.129Z,2.17
2022-08-22T12:53:01.743Z,2.35
2022-08-22T12:56:00.220Z,2.22
2022-08-22T12:58:51.038Z,2.75
2022-08-22T13:01:23.337Z,2.40
2022-08-22T13:04:08.285Z,2.83
2022-08-22T13:06:58.057Z,2.38
2022-08-22T13:09:30.940Z,2.65
2022-08-22T13:12:07.507Z,2.50
2022-08-22T13:14:38.975Z,2.60
2022-08-22T13:17:25.163Z,2.55
2022-08-22T13:20:05.929Z,2.40
2022-08-22T13:22:57.800Z,2.40
2022-08-22T13:25:37.039Z,2.22
2022-08-22T13:28:13.900Z,2.65
2022-08-22T13:30:45.110Z,2.53
2022-08-22T13:33:25.502Z,2.80
2022-08-22T13:35:57.377Z,2.85
2022-08-22T13:38:29.457Z,2.40
2022-08-22T13:46:12.887Z,2.45
2022-08-22T13:48:51.908Z,2.83
2022-08-22T13:51:27.949Z,2.78
2022-08-22T13:54:11.120Z,2.45
2022-08-22T13:56:50.742Z,2.70
2022-08-22T13:59:50.234Z,2.90
2022-08-22T14:02:51.523Z,2.70
2022-08-22T14:05:27.490Z,2.42
2022-08-22T14:08:12.898Z,2.30
2022-08-22T14:10:47.413Z,2.50
2022-08-22T14:13:41.990Z,2.55
2022-08-22T14:16:15.128Z,2.80
2022-08-22T14:18:54.353Z,2.00
2022-08-22T14:21:39.921Z,2.47
2022-08-22T14:24:25.768Z,2.60
2022-08-22T14:26:59.849Z,2.72
2022-08-22T14:29:46.034Z,2.00
2022-08-22T14:32:43.392Z,2.05
2022-08-22T14:35:34.991Z,2.10
2022-08-22T14:38:36.001Z,2.90
2022-08-22T14:41:07.630Z,2.65
2022-08-22T14:43:52.979Z,1.90
2022-08-22T14:46:27.236Z,2.72
2022-08-22T14:49:26.982Z,2.78
2022-08-22T14:52:10.170Z,2.30
2022-08-22T14:54:48.906Z,2.40
2022-08-22T14:57:21.201Z,2.58
2022-08-22T14:59:52.694Z,2.53
2022-08-22T15:02:27.106Z,2.58
2022-08-22T15:05:01.683Z,2.00
2022-08-22T15:07:36.528Z,2.20
2022-08-22T15:10:11.987Z,2.50
2022-08-22T15:12:48.730Z,2.25
2022-08-22T15:15:30.703Z,2.45
2022-08-22T15:18:00.886Z,2.17
2022-08-22T15:20:36.454Z,2.53
2022-08-22T15:23:21.711Z,2.50
2022-08-22T15:26:00.774Z,2.17
2022-08-22T15:28:33.776Z,2.58
2022-08-22T15:31:20.665Z,2.35
2022-08-22T15:33:50.483Z,2.50
2022-08-22T15:36:22.629Z,2.58
2022-08-22T15:38:56.343Z,2.45
2022-08-22T15:41:31.532Z,2.58
2022-08-22T15:44:14.928Z,2.28
2022-08-22T15:47:10.825Z,2.33
2022-08-22T15:49:50.636Z,2.67
2022-08-22T15:52:27.652Z,2.60
2022-08-22T15:55:26.706Z,2.70
2022-08-22T15:58:06.895Z,2.53
2022-08-22T16:00:41.951Z,2.00
2022-08-22T16:03:25.069Z,2.22
2022-08-22T16:05:57.149Z,3.00
2022-08-22T16:08:32.939Z,3.03
2022-08-22T16:11:41.747Z,2.30
2022-08-22T16:14:22.897Z,2.40
2022-08-22T16:17:11.295Z,3.08
2022-08-22T16:19:47.996Z,2.50
2022-08-22T16:22:16.934Z,2.47
2022-08-22T16:25:02.588Z,2.33
2022-08-22T16:27:33.989Z,2.35
2022-08-22T16:30:15.596Z,2.97
2022-08-22T16:32:57.558Z,2.35
2022-08-22T16:36:03.913Z,2.47
2022-08-22T16:38:41.489Z,2.67
2022-08-22T16:41:36.851Z,2.63
2022-08-22T16:44:39.945Z,7.43
2022-08-22T16:47:13.551Z,2.70
2022-08-22T16:50:00.238Z,2.60
2022-08-22T16:52:54.079Z,2.35
2022-08-22T16:55:56.595Z,2.53
2022-08-22T16:58:57.954Z,2.38
2022-08-22T17:01:48.252Z,2.97
2022-08-22T17:04:25.689Z,2.42
2022-08-22T17:11:49.447Z,2.17
2022-08-22T17:15:15.902Z,2.15
2022-08-22T17:21:12.739Z,2.90
2022-08-22T17:23:51.575Z,2.78
2022-08-22T17:26:30.103Z,2.90
2022-08-22T17:29:12.739Z,2.88
2022-08-22T17:31:54.265Z,2.83
2022-08-22T17:34:34.381Z,2.40
2022-08-22T17:37:11.638Z,2.20
2022-08-22T17:40:11.004Z,2.88
2022-08-22T17:42:54.882Z,2.30
2022-08-22T17:45:34.704Z,2.38
2022-08-22T17:48:09.180Z,2.95
2022-08-22T17:50:44.347Z,2.38
2022-08-22T17:53:26.556Z,2.63
2022-08-22T17:56:02.209Z,2.72
2022-08-22T17:58:43.182Z,3.15
2022-08-22T18:01:17.293Z,2.28
2022-08-22T18:03:53.505Z,3.55
2022-08-22T18:06:26.355Z,3.95
2022-08-22T18:09:16.281Z,13.32
2022-08-22T18:11:51.273Z,21.80
2022-08-22T18:14:31.000Z,7.45
2022-08-22T18:17:01.177Z,2.80
2022-08-22T18:19:42.435Z,3.13
2022-08-22T18:22:19.382Z,3.10
2022-08-22T18:36:34.091Z,2.60
2022-08-22T18:39:07.799Z,3.20
2022-08-22T18:41:44.361Z,2.83
2022-08-22T18:44:19.528Z,2.67
2022-08-22T18:46:51.591Z,2.70
2022-08-22T18:49:47.037Z,2.73
2022-08-22T18:52:36.635Z,2.77
2022-08-22T18:55:31.875Z,3.17
2022-08-22T18:58:17.120Z,3.60
2022-08-22T19:01:11.234Z,2.90
2022-08-22T19:04:00.330Z,3.17
2022-08-22T19:07:01.262Z,2.97
2022-08-22T19:09:55.137Z,2.97
2022-08-22T19:12:46.476Z,2.60
2022-08-22T19:15:32.356Z,2.57
2022-08-22T19:18:23.999Z,2.60
2022-08-22T19:21:32.716Z,2.70
2022-08-22T19:24:01.719Z,2.67
2022-08-22T19:26:37.983Z,3.30
2022-08-22T19:29:28.030Z,2.50
2022-08-22T19:31:58.158Z,2.67
2022-08-22T19:34:47.005Z,2.60
2022-08-22T19:37:32.101Z,3.00
2022-08-22T19:40:05.115Z,2.70
2022-08-22T19:42:39.807Z,3.20
2022-08-22T19:45:19.832Z,2.83
2022-08-22T19:47:58.424Z,2.30
2022-08-22T19:50:31.490Z,3.00
2022-08-22T19:53:26.596Z,3.00
2022-08-22T19:56:07.794Z,3.63
2022-08-22T19:58:52.370Z,2.67
2022-08-22T20:01:47.135Z,2.70
2022-08-22T20:04:40.458Z,3.50
2022-08-22T20:07:21.749Z,2.40
2022-08-22T20:10:00.996Z,2.80
2022-08-22T20:12:38.772Z,2.70
2022-08-22T20:15:20.042Z,3.00
2022-08-22T20:20:54.932Z,3.30
2022-08-22T20:23:29.107Z,2.90
2022-08-22T20:25:58.240Z,3.03
2022-08-22T20:28:35.190Z,3.90
2022-08-22T20:31:08.707Z,3.27
2022-08-22T20:33:40.154Z,3.20
2022-08-22T20:36:27.087Z,3.07
2022-08-22T20:39:01.856Z,3.13
2022-08-22T20:41:35.904Z,3.27
2022-08-22T20:44:13.561Z,3.37
2022-08-22T20:46:55.650Z,3.10
2022-08-22T20:49:28.857Z,3.07
2022-08-22T20:51:59.721Z,3.43
2022-08-22T20:54:31.264Z,3.27
2022-08-22T20:57:01.568Z,3.13
2022-08-22T20:59:35.846Z,2.97
2022-08-22T21:02:12.170Z,3.20
2022-08-22T21:04:48.101Z,3.27
2022-08-22T21:07:22.978Z,3.00
2022-08-22T21:10:17.685Z,2.60
2022-08-22T21:13:07.708Z,3.30
2022-08-22T21:15:39.727Z,3.17
2022-08-22T21:18:10.953Z,3.73
2022-08-22T21:20:40.235Z,3.87
2022-08-22T21:23:13.103Z,3.53
2022-08-22T21:25:52.362Z,3.20
2022-08-22T21:28:31.106Z,3.73
2022-08-22T21:31:09.021Z,3.03
2022-08-22T21:33:44.047Z,3.53
2022-08-22T21:36:17.376Z,3.73
2022-08-22T21:38:52.039Z,3.87
2022-08-22T21:41:35.314Z,3.33
2022-08-22T21:44:29.731Z,4.10
2022-08-22T21:47:14.464Z,3.13
2022-08-22T21:50:03.814Z,3.33
2022-08-22T21:52:34.129Z,3.60
2022-08-22T21:55:18.561Z,3.07
2022-08-22T21:57:46.880Z,3.17
2022-08-22T22:00:49.464Z,3.83
2022-08-22T22:03:20.914Z,3.57
2022-08-22T22:05:52.964Z,3.57
2022-08-22T22:08:21.463Z,3.17
2022-08-22T22:10:52.541Z,3.50
2022-08-22T22:13:23.799Z,3.80
2022-08-22T22:15:56.211Z,3.37
2022-08-22T22:18:32.874Z,3.73
2022-08-22T22:21:02.965Z,3.60
2022-08-22T22:23:31.573Z,3.40
2022-08-22T22:26:02.916Z,3.93
2022-08-22T22:28:33.319Z,3.43
2022-08-22T22:31:01.963Z,3.50
2022-08-22T22:33:32.962Z,4.10
2022-08-22T22:36:07.447Z,3.27
2022-08-22T22:38:36.554Z,3.33
2022-08-22T22:41:04.900Z,3.80
2022-08-22T22:43:33.245Z,3.60
2022-08-22T22:46:01.773Z,3.40
2022-08-22T22:48:30.354Z,3.90
2022-08-22T22:50:58.793Z,3.50
2022-08-22T22:53:38.340Z,4.27
2022-08-22T22:56:09.596Z,4.60
2022-08-22T22:58:39.117Z,3.50
2022-08-22T23:01:12.197Z,3.70
2022-08-22T23:03:40.698Z,3.73
2022-08-22T23:06:12.736Z,3.50
2022-08-22T23:08:42.702Z,3.77
2022-08-22T23:11:12.379Z,3.83
2022-08-22T23:13:42.937Z,3.77
2022-08-22T23:16:15.808Z,3.80
2022-08-22T23:18:44.969Z,3.73
2022-08-22T23:21:15.893Z,3.83
2022-08-22T23:23:45.785Z,3.47
2022-08-22T23:26:15.133Z,3.97
2022-08-22T23:28:45.056Z,3.20
2022-08-22T23:31:17.091Z,3.60
2022-08-22T23:33:46.650Z,3.70
2022-08-22T23:36:19.065Z,3.67
2022-08-22T23:38:50.349Z,4.03
2022-08-22T23:41:21.541Z,3.53
2022-08-22T23:43:53.548Z,4.00
2022-08-22T23:46:25.058Z,4.17
2022-08-22T23:48:54.274Z,3.53
2022-08-22T23:51:24.414Z,4.23
2022-08-22T23:53:56.057Z,4.13
2022-08-22T23:56:30.822Z,3.93
2022-08-22T23:59:01.249Z,3.67
